Time,TemperatureF,DewpointF,PressureIn,WindDirection,WindDirectionDegrees,WindSpeedMPH,WindSpeedGustMPH,Humidity,HourlyPrecipIn,Conditions,Clouds,dailyrainin,SoftwareType,DateUTC
2013-03-02 00:07:00,54.0,24.8,30.17,SSE,157,2.7,-999.0,32,-99.99,,,0.00,Acu-Link.com,2013-03-02 08:07:00,
2013-03-02 00:22:00,52.9,25.3,30.17,SSE,157,2.2,-999.0,34,-99.99,,,0.00,Acu-Link.com,2013-03-02 08:22:00,
2013-03-02 00:38:00,52.0,25.9,30.18,ESE,112,1.7,-999.0,36,-99.99,,,0.00,Acu-Link.com,2013-03-02 08:38:00,
2013-03-02 00:53:00,50.7,26.7,30.18,SSE,157,4.2,-999.0,39,-99.99,,,0.00,Acu-Link.com,2013-03-02 08:53:00,
2013-03-02 01:18:00,50.7,26.7,30.18,SSE,157,3.7,-999.0,39,-99.99,,,0.00,Acu-Link.com,2013-03-02 09:18:00,
2013-03-02 01:33:00,52.5,25.7,30.16,SSE,157,3.7,-999.0,35,-99.99,,,0.00,Acu-Link.com,2013-03-02 09:33:00,
2013-03-02 01:48:00,51.8,25.7,30.15,SSE,157,3.7,-999.0,36,-99.99,,,0.00,Acu-Link.com,2013-03-02 09:48:00,
2013-03-02 02:03:00,50.9,25.6,30.16,SSE,157,4.2,-999.0,37,-99.99,,,0.00,Acu-Link.com,2013-03-02 10:03:00,
2013-03-02 02:19:00,51.1,25.7,30.14,ESE,112,3.2,-999.0,37,-99.99,,,0.00,Acu-Link.com,2013-03-02 10:19:00,
2013-03-02 02:34:00,49.5,26.2,30.14,NE,45,4.2,-999.0,40,-99.99,,,0.00,Acu-Link.com,2013-03-02 10:34:00,
2013-03-02 02:49:00,49.3,25.4,30.14,ENE,67,2.7,-999.0,39,-99.99,,,0.00,Acu-Link.com,2013-03-02 10:49:00,
2013-03-02 03:04:00,48.9,26.2,30.14,SSW,202,3.2,-999.0,41,-99.99,,,0.00,Acu-Link.com,2013-03-02 11:04:00,
2013-03-02 03:20:00,47.5,25.0,30.14,West,270,0.0,-999.0,41,-99.99,,,0.00,Acu-Link.com,2013-03-02 11:20:00,
2013-03-02 03:35:00,47.3,26.0,30.15,SSE,157,0.0,-999.0,43,-99.99,,,0.00,Acu-Link.com,2013-03-02 11:35:00,
2013-03-02 03:50:00,48.0,25.4,30.14,SSE,157,3.2,-999.0,41,-99.99,,,0.00,Acu-Link.com,2013-03-02 11:50:00,
2013-03-02 04:05:00,48.9,24.4,30.14,SSE,157,4.7,-999.0,38,-99.99,,,0.00,Acu-Link.com,2013-03-02 12:05:00,
2013-03-02 04:21:00,50.4,24.5,30.14,SE,135,4.2,-999.0,36,-99.99,,,0.00,Acu-Link.com,2013-03-02 12:21:00,
2013-03-02 04:36:00,49.3,25.4,30.14,NNE,22,2.7,-999.0,39,-99.99,,,0.00,Acu-Link.com,2013-03-02 12:36:00,
2013-03-02 04:51:00,46.6,26.4,30.15,West,270,0.0,-999.0,45,-99.99,,,0.00,Acu-Link.com,2013-03-02 12:51:00,
2013-03-02 05:06:00,45.3,26.8,30.15,NNW,337,3.2,-999.0,48,-99.99,,,0.00,Acu-Link.com,2013-03-02 13:06:00,
2013-03-02 05:22:00,45.5,25.9,30.15,SSW,202,2.2,-999.0,46,-99.99,,,0.00,Acu-Link.com,2013-03-02 13:22:00,
2013-03-02 05:37:00,46.0,25.3,30.16,SSE,157,2.7,-999.0,44,-99.99,,,0.00,Acu-Link.com,2013-03-02 13:37:00,
2013-03-02 05:52:00,46.2,25.5,30.16,NNW,337,1.7,-999.0,44,-99.99,,,0.00,Acu-Link.com,2013-03-02 13:52:00,
2013-03-02 06:08:00,45.9,24.7,30.16,ESE,112,3.7,-999.0,43,-99.99,,,0.00,Acu-Link.com,2013-03-02 14:08:00,
2013-03-02 06:23:00,47.7,24.6,30.16,ESE,112,3.2,-999.0,40,-99.99,,,0.00,Acu-Link.com,2013-03-02 14:23:00,
2013-03-02 06:38:00,46.9,26.1,30.16,SE,135,3.7,-999.0,44,-99.99,,,0.00,Acu-Link.com,2013-03-02 14:38:00,
2013-03-02 06:53:00,50.9,26.2,30.17,West,270,1.1,-999.0,38,-99.99,,,0.00,Acu-Link.com,2013-03-02 14:53:00,
2013-03-02 07:08:00,52.5,27.6,30.18,ENE,67,2.7,-999.0,38,-99.99,,,0.00,Acu-Link.com,2013-03-02 15:08:00,
2013-03-02 07:23:00,54.3,28.6,30.16,ESE,112,2.7,-999.0,37,-99.99,,,0.00,Acu-Link.com,2013-03-02 15:23:00,
2013-03-02 07:39:00,57.0,29.6,30.16,ESE,112,2.2,-999.0,35,-99.99,,,0.00,Acu-Link.com,2013-03-02 15:39:00,
2013-03-02 07:54:00,60.1,32.4,30.16,NE,45,3.7,-999.0,35,-99.99,,,0.00,Acu-Link.com,2013-03-02 15:54:00,
2013-03-02 08:09:00,60.1,32.4,30.17,NW,315,2.7,-999.0,35,-99.99,,,0.00,Acu-Link.com,2013-03-02 16:09:00,
2013-03-02 08:25:00,60.3,30.3,30.15,West,270,2.7,-999.0,32,-99.99,,,0.00,Acu-Link.com,2013-03-02 16:25:00,
2013-03-02 08:40:00,62.4,29.7,30.15,East,90,1.7,-999.0,29,-99.99,,,0.00,Acu-Link.com,2013-03-02 16:40:00,
2013-03-02 08:55:00,64.2,30.4,30.13,West,270,3.2,-999.0,28,-99.99,,,0.00,Acu-Link.com,2013-03-02 16:55:00,
2013-03-02 09:11:00,65.5,33.2,30.15,SW,225,2.7,-999.0,30,-99.99,,,0.00,Acu-Link.com,2013-03-02 17:11:00,
2013-03-02 09:26:00,66.7,29.8,30.15,NW,315,2.7,-999.0,25,-99.99,,,0.00,Acu-Link.com,2013-03-02 17:26:00,
2013-03-02 09:41:00,70.3,27.3,30.14,SSW,202,2.2,-999.0,20,-99.99,,,0.00,Acu-Link.com,2013-03-02 17:41:00,
2013-03-02 09:56:00,71.6,24.5,30.13,NW,315,3.7,-999.0,17,-99.99,,,0.00,Acu-Link.com,2013-03-02 17:56:00,
2013-03-02 10:12:00,73.0,24.2,30.13,WSW,247,4.7,-999.0,16,-99.99,,,0.00,Acu-Link.com,2013-03-02 18:12:00,
2013-03-02 10:27:00,75.0,24.2,30.13,West,270,3.2,-999.0,15,-99.99,,,0.00,Acu-Link.com,2013-03-02 18:27:00,
2013-03-02 10:42:00,76.6,20.2,30.12,NW,315,3.7,-999.0,12,-99.99,,,0.00,Acu-Link.com,2013-03-02 18:42:00,
2013-03-02 10:57:00,78.3,21.5,30.12,NNW,337,3.2,-999.0,12,-99.99,,,0.00,Acu-Link.com,2013-03-02 18:57:00,
2013-03-02 11:12:00,79.3,18.0,30.11,WNW,292,3.7,-999.0,10,-99.99,,,0.00,Acu-Link.com,2013-03-02 19:12:00,
2013-03-02 11:27:00,80.2,13.6,30.11,WSW,247,1.7,-999.0,8,-99.99,,,0.00,Acu-Link.com,2013-03-02 19:27:00,
2013-03-02 11:42:00,82.2,12.0,30.09,WNW,292,4.7,-999.0,7,-99.99,,,0.00,Acu-Link.com,2013-03-02 19:42:00,
2013-03-02 11:58:00,82.0,14.9,30.09,West,270,7.3,-999.0,8,-99.99,,,0.00,Acu-Link.com,2013-03-02 19:58:00,
2013-03-02 12:13:00,83.7,18.9,30.09,West,270,6.8,-999.0,9,-99.99,,,0.00,Acu-Link.com,2013-03-02 20:13:00,
2013-03-02 12:28:00,83.3,15.9,30.07,West,270,4.2,-999.0,8,-99.99,,,0.00,Acu-Link.com,2013-03-02 20:28:00,
2013-03-02 12:43:00,83.3,15.9,30.06,WNW,292,6.3,-999.0,8,-99.99,,,0.00,Acu-Link.com,2013-03-02 20:43:00,
2013-03-02 12:58:00,84.7,13.8,30.04,South,180,1.7,-999.0,7,-99.99,,,0.00,Acu-Link.com,2013-03-02 20:58:00,
2013-03-02 13:14:00,84.7,6.3,30.05,WNW,292,6.8,-999.0,5,-99.99,,,0.00,Acu-Link.com,2013-03-02 21:14:00,
2013-03-02 13:29:00,84.4,6.1,30.03,WSW,247,5.3,-999.0,5,-99.99,,,0.00,Acu-Link.com,2013-03-02 21:29:00,
2013-03-02 13:44:00,84.7,6.3,30.04,West,270,4.2,-999.0,5,-99.99,,,0.00,Acu-Link.com,2013-03-02 21:44:00,
2013-03-02 13:59:00,84.9,6.5,30.03,West,270,5.3,-999.0,5,-99.99,,,0.00,Acu-Link.com,2013-03-02 21:59:00,
2013-03-02 14:15:00,86.2,7.4,30.01,SW,225,8.3,-999.0,5,-99.99,,,0.00,Acu-Link.com,2013-03-02 22:15:00,
2013-03-02 14:30:00,84.6,6.3,30.00,West,270,2.2,-999.0,5,-99.99,,,0.00,Acu-Link.com,2013-03-02 22:30:00,
2013-03-02 14:45:00,85.5,-4.0,30.02,West,270,5.3,-999.0,3,-99.99,,,0.00,Acu-Link.com,2013-03-02 22:45:00,
2013-03-02 15:00:00,84.9,-4.4,30.00,WSW,247,6.8,-999.0,3,-99.99,,,0.00,Acu-Link.com,2013-03-02 23:00:00,
2013-03-02 15:15:00,83.7,-5.2,29.99,SW,225,5.3,-999.0,3,-99.99,,,0.00,Acu-Link.com,2013-03-02 23:15:00,
2013-03-02 15:30:00,83.3,-5.5,30.00,West,270,4.7,-999.0,3,-99.99,,,0.00,Acu-Link.com,2013-03-02 23:30:00,
2013-03-02 15:45:00,83.5,-5.3,30.00,SSW,202,4.2,-999.0,3,-99.99,,,0.00,Acu-Link.com,2013-03-02 23:45:00,
2013-03-02 16:00:00,81.3,4.0,29.99,SW,225,6.8,-999.0,5,-99.99,,,0.00,Acu-Link.com,2013-03-03 00:00:00,
2013-03-02 16:16:00,80.4,10.7,30.00,WSW,247,4.7,-999.0,7,-99.99,,,0.00,Acu-Link.com,2013-03-03 00:16:00,
2013-03-02 16:31:00,82.2,12.0,29.98,WSW,247,5.3,-999.0,7,-99.99,,,0.00,Acu-Link.com,2013-03-03 00:31:00,
2013-03-02 16:46:00,82.9,9.1,29.99,SSW,202,8.3,-999.0,6,-99.99,,,0.00,Acu-Link.com,2013-03-03 00:46:00,
2013-03-02 17:01:00,81.3,14.4,29.98,West,270,5.3,-999.0,8,-99.99,,,0.00,Acu-Link.com,2013-03-03 01:01:00,
2013-03-02 17:16:00,80.1,18.6,29.99,SW,225,10.9,-999.0,10,-99.99,,,0.00,Acu-Link.com,2013-03-03 01:16:00,
2013-03-02 17:31:00,77.9,19.2,29.99,SW,225,6.8,-999.0,11,-99.99,,,0.00,Acu-Link.com,2013-03-03 01:31:00,
2013-03-02 17:47:00,75.2,21.0,30.00,SSW,202,5.3,-999.0,13,-99.99,,,0.00,Acu-Link.com,2013-03-03 01:47:00,
2013-03-02 18:02:00,73.2,21.2,30.00,SW,225,3.2,-999.0,14,-99.99,,,0.00,Acu-Link.com,2013-03-03 02:02:00,
2013-03-02 18:17:00,71.4,21.4,30.01,NE,45,2.7,-999.0,15,-99.99,,,0.00,Acu-Link.com,2013-03-03 02:17:00,
2013-03-02 18:33:00,70.0,21.8,30.01,SSE,157,2.7,-999.0,16,-99.99,,,0.00,Acu-Link.com,2013-03-03 02:33:00,
2013-03-02 18:48:00,67.8,22.8,30.02,NW,315,0.0,-999.0,18,-99.99,,,0.00,Acu-Link.com,2013-03-03 02:48:00,
2013-03-02 19:03:00,65.8,25.9,30.03,NE,45,1.7,-999.0,22,-99.99,,,0.00,Acu-Link.com,2013-03-03 03:03:00,
2013-03-02 19:19:00,64.4,26.8,30.04,SSE,157,2.7,-999.0,24,-99.99,,,0.00,Acu-Link.com,2013-03-03 03:19:00,
2013-03-02 19:34:00,63.1,27.7,30.04,SE,135,3.2,-999.0,26,-99.99,,,0.00,Acu-Link.com,2013-03-03 03:34:00,
2013-03-02 19:49:00,61.7,28.3,30.04,SE,135,3.7,-999.0,28,-99.99,,,0.00,Acu-Link.com,2013-03-03 03:49:00,
2013-03-02 20:04:00,60.8,29.2,30.05,SSE,157,3.2,-999.0,30,-99.99,,,0.00,Acu-Link.com,2013-03-03 04:04:00,
2013-03-02 20:19:00,59.9,29.2,30.05,SSE,157,3.7,-999.0,31,-99.99,,,0.00,Acu-Link.com,2013-03-03 04:19:00,
2013-03-02 20:34:00,59.7,29.0,30.06,SE,135,3.2,-999.0,31,-99.99,,,0.00,Acu-Link.com,2013-03-03 04:34:00,
2013-03-02 20:50:00,59.4,28.8,30.06,South,180,4.7,-999.0,31,-99.99,,,0.00,Acu-Link.com,2013-03-03 04:50:00,
2013-03-02 21:05:00,58.8,27.4,30.05,SSE,157,2.7,-999.0,30,-99.99,,,0.00,Acu-Link.com,2013-03-03 05:05:00,
2013-03-02 21:20:00,57.9,27.5,30.06,SSE,157,2.2,-999.0,31,-99.99,,,0.00,Acu-Link.com,2013-03-03 05:20:00,
2013-03-02 21:35:00,57.6,26.4,30.07,SSE,157,2.2,-999.0,30,-99.99,,,0.00,Acu-Link.com,2013-03-03 05:35:00,
2013-03-02 21:50:00,57.0,26.7,30.07,SE,135,5.3,-999.0,31,-99.99,,,0.00,Acu-Link.com,2013-03-03 05:50:00,
2013-03-02 22:05:00,56.3,27.6,30.06,SSE,157,4.7,-999.0,33,-99.99,,,0.00,Acu-Link.com,2013-03-03 06:05:00,
2013-03-02 22:21:00,55.4,27.5,30.06,ESE,112,4.7,-999.0,34,-99.99,,,0.00,Acu-Link.com,2013-03-03 06:21:00,
2013-03-02 22:36:00,54.9,27.1,30.06,SSE,157,5.3,-999.0,34,-99.99,,,0.00,Acu-Link.com,2013-03-03 06:36:00,
2013-03-02 22:51:00,54.9,26.3,30.05,SSE,157,4.7,-999.0,33,-99.99,,,0.00,Acu-Link.com,2013-03-03 06:51:00,
2013-03-02 23:06:00,54.7,26.2,30.05,SSE,157,4.7,-999.0,33,-99.99,,,0.00,Acu-Link.com,2013-03-03 07:06:00,
2013-03-02 23:21:00,54.9,24.8,30.04,SSE,157,5.8,-999.0,31,-99.99,,,0.00,Acu-Link.com,2013-03-03 07:21:00,
2013-03-02 23:36:00,54.3,24.3,30.04,East,90,2.7,-999.0,31,-99.99,,,0.00,Acu-Link.com,2013-03-03 07:36:00,
2013-03-02 23:52:00,53.2,24.9,30.04,SE,135,5.8,-999.0,33,-99.99,,,0.00,Acu-Link.com,2013-03-03 07:52:00,